sensor_id;sensor_type;location;lat;lon;timestamp;P1;durP1;ratioP1;P2;durP2;ratioP2
51082;SDS011;37131;42.694;23.350;2022-07-25T00:01:22;7.95;;;5.63;;
51082;SDS011;37131;42.694;23.350;2022-07-25T00:03:48;10.40;;;5.80;;
51082;SDS011;37131;42.694;23.350;2022-07-25T00:06:13;9.48;;;5.75;;
51082;SDS011;37131;42.694;23.350;2022-07-25T00:08:39;16.42;;;6.82;;
51082;SDS011;37131;42.694;23.350;2022-07-25T00:11:04;10.27;;;5.82;;
51082;SDS011;37131;42.694;23.350;2022-07-25T00:13:30;19.58;;;10.40;;
51082;SDS011;37131;42.694;23.350;2022-07-25T00:15:55;8.23;;;5.45;;
51082;SDS011;37131;42.694;23.350;2022-07-25T00:18:20;13.27;;;5.90;;
51082;SDS011;37131;42.694;23.350;2022-07-25T00:20:46;14.77;;;6.63;;
51082;SDS011;37131;42.694;23.350;2022-07-25T00:23:11;10.05;;;6.00;;
51082;SDS011;37131;42.694;23.350;2022-07-25T00:25:37;13.05;;;6.68;;
51082;SDS011;37131;42.694;23.350;2022-07-25T00:28:02;14.50;;;6.10;;
51082;SDS011;37131;42.694;23.350;2022-07-25T00:30:28;9.57;;;5.30;;
51082;SDS011;37131;42.694;23.350;2022-07-25T00:32:53;8.18;;;5.13;;
51082;SDS011;37131;42.694;23.350;2022-07-25T00:35:18;18.17;;;6.60;;
51082;SDS011;37131;42.694;23.350;2022-07-25T00:37:44;15.60;;;5.53;;
51082;SDS011;37131;42.694;23.350;2022-07-25T00:40:09;8.48;;;5.18;;
51082;SDS011;37131;42.694;23.350;2022-07-25T00:42:35;11.40;;;5.05;;
51082;SDS011;37131;42.694;23.350;2022-07-25T00:45:01;13.52;;;6.10;;
51082;SDS011;37131;42.694;23.350;2022-07-25T00:47:26;10.68;;;5.07;;
51082;SDS011;37131;42.694;23.350;2022-07-25T00:49:52;9.48;;;5.50;;
51082;SDS011;37131;42.694;23.350;2022-07-25T00:52:17;14.82;;;5.85;;
51082;SDS011;37131;42.694;23.350;2022-07-25T00:54:42;9.73;;;5.78;;
51082;SDS011;37131;42.694;23.350;2022-07-25T00:57:08;8.75;;;5.38;;
51082;SDS011;37131;42.694;23.350;2022-07-25T00:59:33;9.32;;;5.38;;
51082;SDS011;37131;42.694;23.350;2022-07-25T01:01:59;14.07;;;5.50;;
51082;SDS011;37131;42.694;23.350;2022-07-25T01:04:24;7.18;;;5.03;;
51082;SDS011;37131;42.694;23.350;2022-07-25T01:06:50;7.25;;;5.07;;
51082;SDS011;37131;42.694;23.350;2022-07-25T01:09:15;11.13;;;6.05;;
51082;SDS011;37131;42.694;23.350;2022-07-25T01:11:42;8.05;;;5.13;;
51082;SDS011;37131;42.694;23.350;2022-07-25T01:14:08;13.93;;;5.60;;
51082;SDS011;37131;42.694;23.350;2022-07-25T01:16:33;8.82;;;5.07;;
51082;SDS011;37131;42.694;23.350;2022-07-25T01:18:59;12.93;;;5.80;;
51082;SDS011;37131;42.694;23.350;2022-07-25T01:21:25;8.98;;;5.47;;
51082;SDS011;37131;42.694;23.350;2022-07-25T01:23:51;7.53;;;5.05;;
51082;SDS011;37131;42.694;23.350;2022-07-25T01:26:16;7.13;;;4.75;;
51082;SDS011;37131;42.694;23.350;2022-07-25T01:28:42;6.80;;;4.78;;
51082;SDS011;37131;42.694;23.350;2022-07-25T01:31:07;8.80;;;5.47;;
51082;SDS011;37131;42.694;23.350;2022-07-25T01:33:33;14.18;;;6.22;;
51082;SDS011;37131;42.694;23.350;2022-07-25T01:35:59;8.52;;;5.20;;
51082;SDS011;37131;42.694;23.350;2022-07-25T01:38:24;11.13;;;5.47;;
51082;SDS011;37131;42.694;23.350;2022-07-25T01:40:50;9.70;;;5.38;;
51082;SDS011;37131;42.694;23.350;2022-07-25T01:43:15;9.52;;;5.00;;
51082;SDS011;37131;42.694;23.350;2022-07-25T01:45:41;9.75;;;5.45;;
51082;SDS011;37131;42.694;23.350;2022-07-25T01:48:06;9.13;;;5.15;;
51082;SDS011;37131;42.694;23.350;2022-07-25T01:50:32;15.93;;;6.10;;
51082;SDS011;37131;42.694;23.350;2022-07-25T01:52:57;9.27;;;5.43;;
51082;SDS011;37131;42.694;23.350;2022-07-25T01:55:23;8.32;;;5.10;;
51082;SDS011;37131;42.694;23.350;2022-07-25T01:57:48;15.68;;;6.03;;
51082;SDS011;37131;42.694;23.350;2022-07-25T02:00:14;15.45;;;5.68;;
51082;SDS011;37131;42.694;23.350;2022-07-25T02:02:40;13.70;;;6.03;;
51082;SDS011;37131;42.694;23.350;2022-07-25T02:05:07;8.25;;;5.25;;
51082;SDS011;37131;42.694;23.350;2022-07-25T02:07:34;15.07;;;6.05;;
51082;SDS011;37131;42.694;23.350;2022-07-25T02:09:59;16.92;;;6.30;;
51082;SDS011;37131;42.694;23.350;2022-07-25T02:12:25;17.00;;;6.97;;
51082;SDS011;37131;42.694;23.350;2022-07-25T02:14:50;8.73;;;5.78;;
51082;SDS011;37131;42.694;23.350;2022-07-25T02:17:16;16.85;;;6.93;;
51082;SDS011;37131;42.694;23.350;2022-07-25T02:19:42;9.98;;;5.53;;
51082;SDS011;37131;42.694;23.350;2022-07-25T02:22:08;10.32;;;5.70;;
51082;SDS011;37131;42.694;23.350;2022-07-25T02:24:34;9.93;;;5.68;;
51082;SDS011;37131;42.694;23.350;2022-07-25T02:27:01;8.75;;;5.38;;
51082;SDS011;37131;42.694;23.350;2022-07-25T02:29:27;14.27;;;6.47;;
51082;SDS011;37131;42.694;23.350;2022-07-25T02:31:52;15.77;;;6.40;;
51082;SDS011;37131;42.694;23.350;2022-07-25T02:34:17;8.70;;;5.75;;
51082;SDS011;37131;42.694;23.350;2022-07-25T02:36:43;11.50;;;6.25;;
51082;SDS011;37131;42.694;23.350;2022-07-25T02:39:09;9.55;;;5.93;;
51082;SDS011;37131;42.694;23.350;2022-07-25T02:41:36;16.55;;;6.78;;
51082;SDS011;37131;42.694;23.350;2022-07-25T02:44:02;12.70;;;6.20;;
51082;SDS011;37131;42.694;23.350;2022-07-25T02:46:28;8.48;;;5.63;;
51082;SDS011;37131;42.694;23.350;2022-07-25T02:48:53;15.57;;;6.57;;
51082;SDS011;37131;42.694;23.350;2022-07-25T02:51:19;16.67;;;6.60;;
51082;SDS011;37131;42.694;23.350;2022-07-25T02:53:44;11.88;;;5.90;;
51082;SDS011;37131;42.694;23.350;2022-07-25T02:56:10;9.43;;;5.65;;
51082;SDS011;37131;42.694;23.350;2022-07-25T02:58:35;12.18;;;5.88;;
51082;SDS011;37131;42.694;23.350;2022-07-25T03:01:00;9.43;;;5.43;;
51082;SDS011;37131;42.694;23.350;2022-07-25T03:03:26;10.13;;;5.28;;
51082;SDS011;37131;42.694;23.350;2022-07-25T03:05:51;8.80;;;5.07;;
51082;SDS011;37131;42.694;23.350;2022-07-25T03:08:16;13.48;;;5.85;;
51082;SDS011;37131;42.694;23.350;2022-07-25T03:10:42;7.95;;;5.32;;
51082;SDS011;37131;42.694;23.350;2022-07-25T03:13:07;9.18;;;4.93;;
51082;SDS011;37131;42.694;23.350;2022-07-25T03:15:33;8.45;;;5.05;;
51082;SDS011;37131;42.694;23.350;2022-07-25T03:17:58;11.82;;;5.65;;
51082;SDS011;37131;42.694;23.350;2022-07-25T03:20:23;12.00;;;5.20;;
51082;SDS011;37131;42.694;23.350;2022-07-25T03:22:49;10.00;;;5.20;;
51082;SDS011;37131;42.694;23.350;2022-07-25T03:25:14;12.63;;;5.32;;
51082;SDS011;37131;42.694;23.350;2022-07-25T03:27:40;8.57;;;5.28;;
51082;SDS011;37131;42.694;23.350;2022-07-25T03:30:05;9.38;;;4.45;;
51082;SDS011;37131;42.694;23.350;2022-07-25T03:32:31;12.80;;;5.40;;
51082;SDS011;37131;42.694;23.350;2022-07-25T03:34:57;13.07;;;6.05;;
51082;SDS011;37131;42.694;23.350;2022-07-25T03:37:22;8.45;;;5.40;;
51082;SDS011;37131;42.694;23.350;2022-07-25T03:39:47;7.43;;;4.18;;
51082;SDS011;37131;42.694;23.350;2022-07-25T03:42:13;15.23;;;6.50;;
51082;SDS011;37131;42.694;23.350;2022-07-25T03:44:38;10.02;;;5.80;;
51082;SDS011;37131;42.694;23.350;2022-07-25T03:47:04;8.43;;;5.40;;
51082;SDS011;37131;42.694;23.350;2022-07-25T03:49:30;14.43;;;5.20;;
51082;SDS011;37131;42.694;23.350;2022-07-25T03:51:55;10.05;;;5.15;;
51082;SDS011;37131;42.694;23.350;2022-07-25T03:54:20;10.50;;;5.05;;
51082;SDS011;37131;42.694;23.350;2022-07-25T03:56:47;14.48;;;5.70;;
51082;SDS011;37131;42.694;23.350;2022-07-25T03:59:14;9.13;;;5.43;;
51082;SDS011;37131;42.694;23.350;2022-07-25T04:01:43;9.32;;;5.63;;
51082;SDS011;37131;42.694;23.350;2022-07-25T04:04:09;8.20;;;4.88;;
51082;SDS011;37131;42.694;23.350;2022-07-25T04:06:35;10.10;;;5.40;;
51082;SDS011;37131;42.694;23.350;2022-07-25T04:09:01;8.57;;;5.30;;
51082;SDS011;37131;42.694;23.350;2022-07-25T04:11:26;17.23;;;6.15;;
51082;SDS011;37131;42.694;23.350;2022-07-25T04:13:53;9.65;;;5.53;;
51082;SDS011;37131;42.694;23.350;2022-07-25T04:16:19;10.43;;;5.20;;
51082;SDS011;37131;42.694;23.350;2022-07-25T04:18:44;8.77;;;5.32;;
51082;SDS011;37131;42.694;23.350;2022-07-25T04:21:10;10.68;;;5.65;;
51082;SDS011;37131;42.694;23.350;2022-07-25T04:23:35;15.23;;;5.88;;
51082;SDS011;37131;42.694;23.350;2022-07-25T04:26:00;9.75;;;5.28;;
51082;SDS011;37131;42.694;23.350;2022-07-25T04:28:26;6.97;;;4.63;;
51082;SDS011;37131;42.694;23.350;2022-07-25T04:30:52;8.68;;;4.63;;
51082;SDS011;37131;42.694;23.350;2022-07-25T04:33:18;14.48;;;4.90;;
51082;SDS011;37131;42.694;23.350;2022-07-25T04:35:45;12.50;;;5.47;;
51082;SDS011;37131;42.694;23.350;2022-07-25T04:38:11;12.98;;;5.35;;
51082;SDS011;37131;42.694;23.350;2022-07-25T04:40:36;16.77;;;6.00;;
51082;SDS011;37131;42.694;23.350;2022-07-25T04:43:03;9.38;;;4.50;;
51082;SDS011;37131;42.694;23.350;2022-07-25T04:45:29;9.30;;;4.68;;
51082;SDS011;37131;42.694;23.350;2022-07-25T04:47:55;7.70;;;4.07;;
51082;SDS011;37131;42.694;23.350;2022-07-25T04:50:20;9.70;;;4.70;;
51082;SDS011;37131;42.694;23.350;2022-07-25T04:52:46;16.25;;;5.28;;
51082;SDS011;37131;42.694;23.350;2022-07-25T04:55:12;7.65;;;4.65;;
51082;SDS011;37131;42.694;23.350;2022-07-25T04:57:37;7.28;;;4.55;;
51082;SDS011;37131;42.694;23.350;2022-07-25T05:00:03;14.35;;;5.18;;
51082;SDS011;37131;42.694;23.350;2022-07-25T05:02:30;7.22;;;4.32;;
51082;SDS011;37131;42.694;23.350;2022-07-25T05:04:56;7.55;;;4.68;;
51082;SDS011;37131;42.694;23.350;2022-07-25T05:07:21;5.97;;;3.92;;
51082;SDS011;37131;42.694;23.350;2022-07-25T05:09:47;19.67;;;5.88;;
51082;SDS011;37131;42.694;23.350;2022-07-25T05:12:12;7.57;;;4.50;;
51082;SDS011;37131;42.694;23.350;2022-07-25T05:14:38;6.47;;;4.30;;
51082;SDS011;37131;42.694;23.350;2022-07-25T05:17:03;12.43;;;4.97;;
51082;SDS011;37131;42.694;23.350;2022-07-25T05:19:29;6.50;;;4.03;;
51082;SDS011;37131;42.694;23.350;2022-07-25T05:21:54;7.80;;;4.22;;
51082;SDS011;37131;42.694;23.350;2022-07-25T05:24:20;9.02;;;4.32;;
51082;SDS011;37131;42.694;23.350;2022-07-25T05:26:47;11.65;;;4.63;;
51082;SDS011;37131;42.694;23.350;2022-07-25T05:29:12;12.88;;;5.28;;
51082;SDS011;37131;42.694;23.350;2022-07-25T05:31:38;7.60;;;4.47;;
51082;SDS011;37131;42.694;23.350;2022-07-25T05:34:03;12.65;;;5.03;;
51082;SDS011;37131;42.694;23.350;2022-07-25T05:36:29;7.43;;;4.15;;
51082;SDS011;37131;42.694;23.350;2022-07-25T05:38:54;6.82;;;3.95;;
51082;SDS011;37131;42.694;23.350;2022-07-25T05:41:19;8.35;;;4.20;;
51082;SDS011;37131;42.694;23.350;2022-07-25T05:43:45;6.82;;;3.78;;
51082;SDS011;37131;42.694;23.350;2022-07-25T05:46:12;7.30;;;4.35;;
51082;SDS011;37131;42.694;23.350;2022-07-25T05:48:38;12.05;;;5.00;;
51082;SDS011;37131;42.694;23.350;2022-07-25T05:51:04;11.38;;;4.60;;
51082;SDS011;37131;42.694;23.350;2022-07-25T05:53:29;6.85;;;4.18;;
51082;SDS011;37131;42.694;23.350;2022-07-25T05:55:55;8.20;;;4.80;;
51082;SDS011;37131;42.694;23.350;2022-07-25T05:58:20;8.30;;;4.40;;
51082;SDS011;37131;42.694;23.350;2022-07-25T06:00:46;14.98;;;4.95;;
51082;SDS011;37131;42.694;23.350;2022-07-25T06:03:11;11.77;;;4.72;;
51082;SDS011;37131;42.694;23.350;2022-07-25T06:05:37;7.68;;;4.35;;
51082;SDS011;37131;42.694;23.350;2022-07-25T06:08:02;15.55;;;5.35;;
51082;SDS011;37131;42.694;23.350;2022-07-25T06:10:27;8.27;;;4.55;;
51082;SDS011;37131;42.694;23.350;2022-07-25T06:12:53;10.27;;;4.82;;
51082;SDS011;37131;42.694;23.350;2022-07-25T06:15:18;5.85;;;3.65;;
51082;SDS011;37131;42.694;23.350;2022-07-25T06:17:44;12.32;;;4.82;;
51082;SDS011;37131;42.694;23.350;2022-07-25T06:20:09;14.45;;;5.35;;
51082;SDS011;37131;42.694;23.350;2022-07-25T06:22:36;7.65;;;4.47;;
51082;SDS011;37131;42.694;23.350;2022-07-25T06:25:02;14.30;;;5.28;;
51082;SDS011;37131;42.694;23.350;2022-07-25T06:27:28;16.55;;;4.97;;
51082;SDS011;37131;42.694;23.350;2022-07-25T06:29:53;6.68;;;3.88;;
51082;SDS011;37131;42.694;23.350;2022-07-25T06:32:19;8.40;;;4.28;;
51082;SDS011;37131;42.694;23.350;2022-07-25T06:34:44;8.75;;;4.38;;
51082;SDS011;37131;42.694;23.350;2022-07-25T06:37:09;5.63;;;3.92;;
51082;SDS011;37131;42.694;23.350;2022-07-25T06:39:35;12.13;;;4.50;;
51082;SDS011;37131;42.694;23.350;2022-07-25T06:42:00;7.28;;;4.05;;
51082;SDS011;37131;42.694;23.350;2022-07-25T06:44:30;14.18;;;4.97;;
51082;SDS011;37131;42.694;23.350;2022-07-25T06:46:56;8.68;;;4.10;;
51082;SDS011;37131;42.694;23.350;2022-07-25T06:49:22;8.10;;;4.18;;
51082;SDS011;37131;42.694;23.350;2022-07-25T06:51:47;11.48;;;6.15;;
51082;SDS011;37131;42.694;23.350;2022-07-25T06:54:13;7.10;;;4.63;;
51082;SDS011;37131;42.694;23.350;2022-07-25T06:56:39;8.73;;;4.70;;
51082;SDS011;37131;42.694;23.350;2022-07-25T06:59:04;7.57;;;4.55;;
51082;SDS011;37131;42.694;23.350;2022-07-25T07:01:30;6.32;;;4.25;;
51082;SDS011;37131;42.694;23.350;2022-07-25T07:03:55;6.95;;;4.30;;
51082;SDS011;37131;42.694;23.350;2022-07-25T07:06:21;6.03;;;4.10;;
51082;SDS011;37131;42.694;23.350;2022-07-25T07:08:46;7.15;;;3.80;;
51082;SDS011;37131;42.694;23.350;2022-07-25T07:11:12;6.93;;;4.30;;
51082;SDS011;37131;42.694;23.350;2022-07-25T07:13:39;9.57;;;4.53;;
51082;SDS011;37131;42.694;23.350;2022-07-25T07:16:04;9.57;;;4.60;;
51082;SDS011;37131;42.694;23.350;2022-07-25T07:18:30;14.00;;;4.93;;
51082;SDS011;37131;42.694;23.350;2022-07-25T07:20:55;9.38;;;4.43;;
51082;SDS011;37131;42.694;23.350;2022-07-25T07:23:21;6.47;;;4.20;;
51082;SDS011;37131;42.694;23.350;2022-07-25T07:25:46;8.25;;;5.05;;
51082;SDS011;37131;42.694;23.350;2022-07-25T07:28:12;5.70;;;4.25;;
51082;SDS011;37131;42.694;23.350;2022-07-25T07:30:37;7.82;;;4.38;;
51082;SDS011;37131;42.694;23.350;2022-07-25T07:33:03;5.35;;;3.65;;
51082;SDS011;37131;42.694;23.350;2022-07-25T07:35:28;6.60;;;3.88;;
51082;SDS011;37131;42.694;23.350;2022-07-25T07:37:54;13.77;;;5.00;;
51082;SDS011;37131;42.694;23.350;2022-07-25T07:40:20;10.93;;;4.03;;
51082;SDS011;37131;42.694;23.350;2022-07-25T07:42:49;13.35;;;4.70;;
51082;SDS011;37131;42.694;23.350;2022-07-25T07:45:16;9.80;;;4.13;;
51082;SDS011;37131;42.694;23.350;2022-07-25T07:47:44;7.70;;;4.22;;
51082;SDS011;37131;42.694;23.350;2022-07-25T07:50:12;6.45;;;3.90;;
51082;SDS011;37131;42.694;23.350;2022-07-25T07:52:38;7.55;;;3.78;;
51082;SDS011;37131;42.694;23.350;2022-07-25T07:55:03;6.70;;;4.25;;
51082;SDS011;37131;42.694;23.350;2022-07-25T07:57:48;5.55;;;3.85;;
51082;SDS011;37131;42.694;23.350;2022-07-25T08:00:14;7.18;;;3.65;;
51082;SDS011;37131;42.694;23.350;2022-07-25T08:02:48;11.55;;;4.57;;
51082;SDS011;37131;42.694;23.350;2022-07-25T08:05:22;12.77;;;4.55;;
51082;SDS011;37131;42.694;23.350;2022-07-25T08:07:52;7.43;;;3.88;;
51082;SDS011;37131;42.694;23.350;2022-07-25T08:10:19;11.45;;;4.53;;
51082;SDS011;37131;42.694;23.350;2022-07-25T08:12:46;8.02;;;3.95;;
51082;SDS011;37131;42.694;23.350;2022-07-25T08:15:11;7.25;;;4.30;;
51082;SDS011;37131;42.694;23.350;2022-07-25T08:17:37;8.30;;;4.28;;
51082;SDS011;37131;42.694;23.350;2022-07-25T08:20:03;7.65;;;4.00;;
51082;SDS011;37131;42.694;23.350;2022-07-25T08:22:35;5.80;;;4.13;;
51082;SDS011;37131;42.694;23.350;2022-07-25T08:25:02;5.05;;;3.70;;
51082;SDS011;37131;42.694;23.350;2022-07-25T08:27:28;14.30;;;5.20;;
51082;SDS011;37131;42.694;23.350;2022-07-25T08:29:54;6.95;;;4.18;;
51082;SDS011;37131;42.694;23.350;2022-07-25T08:32:19;6.50;;;3.90;;
51082;SDS011;37131;42.694;23.350;2022-07-25T08:34:44;11.20;;;5.97;;
51082;SDS011;37131;42.694;23.350;2022-07-25T08:37:10;6.10;;;3.97;;
51082;SDS011;37131;42.694;23.350;2022-07-25T08:39:35;6.22;;;3.63;;
51082;SDS011;37131;42.694;23.350;2022-07-25T08:42:01;5.13;;;3.58;;
51082;SDS011;37131;42.694;23.350;2022-07-25T08:44:27;10.13;;;4.07;;
51082;SDS011;37131;42.694;23.350;2022-07-25T08:49:26;5.57;;;3.90;;
51082;SDS011;37131;42.694;23.350;2022-07-25T08:51:52;5.30;;;3.75;;
51082;SDS011;37131;42.694;23.350;2022-07-25T08:54:19;10.90;;;4.05;;
51082;SDS011;37131;42.694;23.350;2022-07-25T08:56:46;5.78;;;4.10;;
51082;SDS011;37131;42.694;23.350;2022-07-25T08:59:12;6.25;;;4.07;;
51082;SDS011;37131;42.694;23.350;2022-07-25T09:01:38;9.35;;;4.15;;
51082;SDS011;37131;42.694;23.350;2022-07-25T09:04:03;7.03;;;3.72;;
51082;SDS011;37131;42.694;23.350;2022-07-25T09:06:31;6.22;;;3.55;;
51082;SDS011;37131;42.694;23.350;2022-07-25T09:08:58;7.60;;;4.20;;
51082;SDS011;37131;42.694;23.350;2022-07-25T09:11:28;5.40;;;3.30;;
51082;SDS011;37131;42.694;23.350;2022-07-25T09:13:56;8.35;;;3.55;;
51082;SDS011;37131;42.694;23.350;2022-07-25T09:16:32;7.95;;;4.00;;
51082;SDS011;37131;42.694;23.350;2022-07-25T09:19:12;6.15;;;3.25;;
51082;SDS011;37131;42.694;23.350;2022-07-25T09:21:42;8.40;;;3.88;;
51082;SDS011;37131;42.694;23.350;2022-07-25T09:24:15;5.97;;;3.70;;
51082;SDS011;37131;42.694;23.350;2022-07-25T09:26:46;5.57;;;3.67;;
51082;SDS011;37131;42.694;23.350;2022-07-25T09:29:23;7.82;;;4.05;;
51082;SDS011;37131;42.694;23.350;2022-07-25T09:31:53;7.15;;;3.95;;
51082;SDS011;37131;42.694;23.350;2022-07-25T09:37:04;6.40;;;3.60;;
51082;SDS011;37131;42.694;23.350;2022-07-25T09:39:44;6.57;;;3.83;;
51082;SDS011;37131;42.694;23.350;2022-07-25T09:45:02;13.40;;;4.00;;
51082;SDS011;37131;42.694;23.350;2022-07-25T09:47:32;6.65;;;4.35;;
51082;SDS011;37131;42.694;23.350;2022-07-25T09:50:00;6.30;;;3.78;;
51082;SDS011;37131;42.694;23.350;2022-07-25T09:52:25;6.10;;;3.10;;
51082;SDS011;37131;42.694;23.350;2022-07-25T09:54:51;8.63;;;4.38;;
51082;SDS011;37131;42.694;23.350;2022-07-25T09:57:18;8.45;;;3.67;;
51082;SDS011;37131;42.694;23.350;2022-07-25T09:59:45;11.70;;;4.28;;
51082;SDS011;37131;42.694;23.350;2022-07-25T10:02:13;6.85;;;3.70;;
51082;SDS011;37131;42.694;23.350;2022-07-25T10:05:11;4.72;;;3.47;;
51082;SDS011;37131;42.694;23.350;2022-07-25T10:07:35;6.25;;;3.30;;
51082;SDS011;37131;42.694;23.350;2022-07-25T10:10:03;6.30;;;3.42;;
51082;SDS011;37131;42.694;23.350;2022-07-25T10:12:32;7.47;;;3.47;;
51082;SDS011;37131;42.694;23.350;2022-07-25T10:17:31;5.05;;;3.45;;
51082;SDS011;37131;42.694;23.350;2022-07-25T10:19:57;6.18;;;3.35;;
51082;SDS011;37131;42.694;23.350;2022-07-25T10:22:38;5.63;;;3.50;;
51082;SDS011;37131;42.694;23.350;2022-07-25T10:25:14;5.05;;;3.50;;
51082;SDS011;37131;42.694;23.350;2022-07-25T10:27:42;7.10;;;3.47;;
51082;SDS011;37131;42.694;23.350;2022-07-25T10:30:21;8.15;;;3.70;;
51082;SDS011;37131;42.694;23.350;2022-07-25T10:32:49;7.03;;;3.50;;
51082;SDS011;37131;42.694;23.350;2022-07-25T10:35:24;7.82;;;4.53;;
51082;SDS011;37131;42.694;23.350;2022-07-25T10:37:52;6.57;;;3.40;;
51082;SDS011;37131;42.694;23.350;2022-07-25T10:40:39;6.68;;;3.50;;
51082;SDS011;37131;42.694;23.350;2022-07-25T10:45:57;5.25;;;2.92;;
51082;SDS011;37131;42.694;23.350;2022-07-25T10:48:23;5.90;;;2.83;;
51082;SDS011;37131;42.694;23.350;2022-07-25T10:51:01;7.75;;;3.80;;
51082;SDS011;37131;42.694;23.350;2022-07-25T10:53:29;6.13;;;3.40;;
51082;SDS011;37131;42.694;23.350;2022-07-25T10:56:16;6.13;;;2.78;;
51082;SDS011;37131;42.694;23.350;2022-07-25T11:01:22;4.70;;;3.07;;
51082;SDS011;37131;42.694;23.350;2022-07-25T11:03:50;6.10;;;2.95;;
51082;SDS011;37131;42.694;23.350;2022-07-25T11:06:28;3.95;;;2.80;;
51082;SDS011;37131;42.694;23.350;2022-07-25T11:08:54;4.75;;;3.03;;
51082;SDS011;37131;42.694;23.350;2022-07-25T11:11:21;4.35;;;2.95;;
51082;SDS011;37131;42.694;23.350;2022-07-25T11:13:57;5.40;;;3.28;;
51082;SDS011;37131;42.694;23.350;2022-07-25T11:16:24;4.53;;;2.83;;
51082;SDS011;37131;42.694;23.350;2022-07-25T11:18:51;4.45;;;2.95;;
51082;SDS011;37131;42.694;23.350;2022-07-25T11:21:18;4.70;;;2.67;;
51082;SDS011;37131;42.694;23.350;2022-07-25T11:23:48;7.03;;;3.17;;
51082;SDS011;37131;42.694;23.350;2022-07-25T11:26:15;7.13;;;3.50;;
51082;SDS011;37131;42.694;23.350;2022-07-25T11:28:42;4.35;;;2.90;;
51082;SDS011;37131;42.694;23.350;2022-07-25T11:31:09;3.10;;;2.40;;
51082;SDS011;37131;42.694;23.350;2022-07-25T11:33:37;4.65;;;2.88;;
51082;SDS011;37131;42.694;23.350;2022-07-25T11:36:04;4.40;;;2.53;;
51082;SDS011;37131;42.694;23.350;2022-07-25T11:38:30;5.68;;;3.20;;
51082;SDS011;37131;42.694;23.350;2022-07-25T11:40:56;3.50;;;2.45;;
51082;SDS011;37131;42.694;23.350;2022-07-25T11:43:22;6.25;;;3.28;;
51082;SDS011;37131;42.694;23.350;2022-07-25T11:45:55;6.15;;;2.95;;
51082;SDS011;37131;42.694;23.350;2022-07-25T11:48:20;4.82;;;2.83;;
51082;SDS011;37131;42.694;23.350;2022-07-25T11:51:10;5.13;;;2.75;;
51082;SDS011;37131;42.694;23.350;2022-07-25T11:53:45;4.30;;;2.70;;
51082;SDS011;37131;42.694;23.350;2022-07-25T11:56:17;4.38;;;2.80;;
51082;SDS011;37131;42.694;23.350;2022-07-25T11:59:05;6.68;;;3.17;;
51082;SDS011;37131;42.694;23.350;2022-07-25T12:01:33;4.70;;;2.90;;
51082;SDS011;37131;42.694;23.350;2022-07-25T12:04:21;12.20;;;3.35;;
51082;SDS011;37131;42.694;23.350;2022-07-25T12:09:17;5.05;;;2.78;;
51082;SDS011;37131;42.694;23.350;2022-07-25T12:11:43;5.57;;;3.30;;
51082;SDS011;37131;42.694;23.350;2022-07-25T12:14:11;4.45;;;2.83;;
51082;SDS011;37131;42.694;23.350;2022-07-25T12:16:37;4.80;;;2.88;;
51082;SDS011;37131;42.694;23.350;2022-07-25T12:19:03;3.95;;;2.65;;
51082;SDS011;37131;42.694;23.350;2022-07-25T12:21:32;4.68;;;2.22;;
51082;SDS011;37131;42.694;23.350;2022-07-25T12:23:58;4.18;;;2.83;;
51082;SDS011;37131;42.694;23.350;2022-07-25T12:26:23;4.50;;;3.03;;
51082;SDS011;37131;42.694;23.350;2022-07-25T12:28:49;4.38;;;2.65;;
51082;SDS011;37131;42.694;23.350;2022-07-25T12:31:14;3.92;;;2.72;;
51082;SDS011;37131;42.694;23.350;2022-07-25T12:33:40;5.65;;;3.10;;
51082;SDS011;37131;42.694;23.350;2022-07-25T12:36:05;5.70;;;2.92;;
51082;SDS011;37131;42.694;23.350;2022-07-25T12:38:31;5.80;;;2.78;;
51082;SDS011;37131;42.694;23.350;2022-07-25T12:40:56;7.28;;;3.35;;
51082;SDS011;37131;42.694;23.350;2022-07-25T12:43:22;5.10;;;3.13;;
51082;SDS011;37131;42.694;23.350;2022-07-25T12:45:48;7.30;;;2.75;;
51082;SDS011;37131;42.694;23.350;2022-07-25T12:48:14;4.10;;;2.65;;
51082;SDS011;37131;42.694;23.350;2022-07-25T12:50:40;5.07;;;2.60;;
51082;SDS011;37131;42.694;23.350;2022-07-25T12:53:06;4.18;;;2.70;;
51082;SDS011;37131;42.694;23.350;2022-07-25T12:55:32;4.10;;;2.63;;
51082;SDS011;37131;42.694;23.350;2022-07-25T12:57:58;6.25;;;2.53;;
51082;SDS011;37131;42.694;23.350;2022-07-25T13:00:23;3.75;;;2.70;;
51082;SDS011;37131;42.694;23.350;2022-07-25T13:02:49;6.70;;;2.63;;
51082;SDS011;37131;42.694;23.350;2022-07-25T13:05:16;6.20;;;2.78;;
51082;SDS011;37131;42.694;23.350;2022-07-25T13:07:42;3.65;;;2.33;;
51082;SDS011;37131;42.694;23.350;2022-07-25T13:10:08;4.10;;;2.42;;
51082;SDS011;37131;42.694;23.350;2022-07-25T13:12:33;3.42;;;2.30;;
51082;SDS011;37131;42.694;23.350;2022-07-25T13:14:59;5.75;;;2.60;;
51082;SDS011;37131;42.694;23.350;2022-07-25T13:17:25;3.95;;;2.53;;
51082;SDS011;37131;42.694;23.350;2022-07-25T13:19:51;4.63;;;2.42;;
51082;SDS011;37131;42.694;23.350;2022-07-25T13:22:16;4.80;;;2.67;;
51082;SDS011;37131;42.694;23.350;2022-07-25T13:24:42;6.60;;;2.33;;
51082;SDS011;37131;42.694;23.350;2022-07-25T13:27:07;4.30;;;2.75;;
51082;SDS011;37131;42.694;23.350;2022-07-25T13:29:33;5.93;;;3.05;;
51082;SDS011;37131;42.694;23.350;2022-07-25T13:32:00;5.20;;;2.72;;
51082;SDS011;37131;42.694;23.350;2022-07-25T13:34:25;5.72;;;2.70;;
51082;SDS011;37131;42.694;23.350;2022-07-25T13:36:51;4.25;;;2.67;;
51082;SDS011;37131;42.694;23.350;2022-07-25T13:39:16;5.32;;;2.70;;
51082;SDS011;37131;42.694;23.350;2022-07-25T13:41:42;4.07;;;2.42;;
51082;SDS011;37131;42.694;23.350;2022-07-25T13:44:07;5.22;;;2.58;;
51082;SDS011;37131;42.694;23.350;2022-07-25T13:46:33;3.65;;;2.72;;
51082;SDS011;37131;42.694;23.350;2022-07-25T13:48:59;3.65;;;2.28;;
51082;SDS011;37131;42.694;23.350;2022-07-25T13:51:24;3.28;;;2.40;;
51082;SDS011;37131;42.694;23.350;2022-07-25T13:53:50;4.05;;;2.60;;
51082;SDS011;37131;42.694;23.350;2022-07-25T13:56:15;5.32;;;2.55;;
51082;SDS011;37131;42.694;23.350;2022-07-25T13:58:40;6.38;;;2.47;;
51082;SDS011;37131;42.694;23.350;2022-07-25T14:01:07;4.78;;;2.50;;
51082;SDS011;37131;42.694;23.350;2022-07-25T14:03:33;4.75;;;2.28;;
51082;SDS011;37131;42.694;23.350;2022-07-25T14:06:00;5.63;;;2.35;;
51082;SDS011;37131;42.694;23.350;2022-07-25T14:08:27;3.38;;;2.53;;
51082;SDS011;37131;42.694;23.350;2022-07-25T14:10:52;4.70;;;2.33;;
51082;SDS011;37131;42.694;23.350;2022-07-25T14:13:18;3.55;;;2.50;;
51082;SDS011;37131;42.694;23.350;2022-07-25T14:15:43;5.35;;;2.78;;
51082;SDS011;37131;42.694;23.350;2022-07-25T14:18:09;6.35;;;3.20;;
51082;SDS011;37131;42.694;23.350;2022-07-25T14:20:34;4.93;;;3.22;;
51082;SDS011;37131;42.694;23.350;2022-07-25T14:23:00;5.45;;;3.55;;
51082;SDS011;37131;42.694;23.350;2022-07-25T14:25:25;4.78;;;2.80;;
51082;SDS011;37131;42.694;23.350;2022-07-25T14:27:50;6.88;;;3.13;;
51082;SDS011;37131;42.694;23.350;2022-07-25T14:30:16;5.45;;;2.92;;
51082;SDS011;37131;42.694;23.350;2022-07-25T14:32:41;4.50;;;2.92;;
51082;SDS011;37131;42.694;23.350;2022-07-25T14:35:07;3.60;;;2.60;;
51082;SDS011;37131;42.694;23.350;2022-07-25T14:37:33;6.07;;;2.97;;
51082;SDS011;37131;42.694;23.350;2022-07-25T14:39:59;5.15;;;3.10;;
51082;SDS011;37131;42.694;23.350;2022-07-25T14:42:25;4.43;;;3.10;;
51082;SDS011;37131;42.694;23.350;2022-07-25T14:44:52;4.70;;;2.97;;
51082;SDS011;37131;42.694;23.350;2022-07-25T14:47:17;7.30;;;3.42;;